createdAt,value
2023-03-17T00:02:04.680Z,65.40
2023-03-17T00:04:34.618Z,65.50
2023-03-17T00:07:02.582Z,65.60
2023-03-17T00:09:30.332Z,65.80
2023-03-17T00:11:58.134Z,65.60
2023-03-17T00:14:26.563Z,65.60
2023-03-17T00:16:54.890Z,65.80
2023-03-17T00:19:33.668Z,65.60
2023-03-17T00:22:03.659Z,65.40
2023-03-17T00:24:31.368Z,65.00
2023-03-17T00:26:59.072Z,65.70
2023-03-17T00:29:27.307Z,65.90
2023-03-17T00:31:57.376Z,66.10
2023-03-17T00:34:25.274Z,66.30
2023-03-17T00:36:52.733Z,66.00
2023-03-17T00:39:23.531Z,66.00
2023-03-17T00:41:50.963Z,66.20
2023-03-17T00:44:18.922Z,65.90
2023-03-17T00:46:46.686Z,66.60
2023-03-17T00:49:20.779Z,66.80
2023-03-17T00:51:50.016Z,66.40
2023-03-17T00:54:18.948Z,66.50
2023-03-17T00:56:48.264Z,66.70
2023-03-17T00:59:29.001Z,67.10
2023-03-17T01:01:57.073Z,67.50
2023-03-17T01:04:25.758Z,67.50
2023-03-17T01:06:54.400Z,67.20
2023-03-17T01:09:26.035Z,67.00
2023-03-17T01:11:58.804Z,67.50
2023-03-17T01:14:26.249Z,67.60
2023-03-17T01:16:55.550Z,67.50
2023-03-17T01:19:23.913Z,67.60
2023-03-17T01:21:51.604Z,67.60
2023-03-17T01:24:18.741Z,67.90
2023-03-17T01:26:46.620Z,67.90
2023-03-17T01:29:14.459Z,67.60
2023-03-17T01:31:42.447Z,67.10
2023-03-17T01:34:10.725Z,68.20
2023-03-17T01:36:39.193Z,67.50
2023-03-17T01:39:07.450Z,67.40
2023-03-17T01:41:37.816Z,67.40
2023-03-17T01:44:05.446Z,67.50
2023-03-17T01:46:36.424Z,67.50
2023-03-17T01:49:10.550Z,68.40
2023-03-17T01:51:58.890Z,67.60
2023-03-17T01:54:48.328Z,67.50
2023-03-17T01:57:25.746Z,67.50
2023-03-17T02:00:00.648Z,67.60
2023-03-17T02:02:35.096Z,67.80
2023-03-17T02:05:05.051Z,67.50
2023-03-17T02:07:33.400Z,67.20
2023-03-17T02:10:01.528Z,67.20
2023-03-17T02:12:30.664Z,67.10
2023-03-17T02:14:58.407Z,66.60
2023-03-17T02:17:46.856Z,66.60
2023-03-17T02:20:23.815Z,66.50
2023-03-17T02:22:56.018Z,66.70
2023-03-17T02:25:26.361Z,66.60
2023-03-17T02:28:04.192Z,67.10
2023-03-17T02:30:33.373Z,66.90
2023-03-17T02:33:01.278Z,66.60
2023-03-17T02:35:29.061Z,66.70
2023-03-17T02:37:56.833Z,66.60
2023-03-17T02:40:24.369Z,66.80
2023-03-17T02:42:52.366Z,66.80
2023-03-17T02:45:20.227Z,67.20
2023-03-17T02:47:48.670Z,67.30
2023-03-17T02:50:19.620Z,67.00
2023-03-17T02:52:47.535Z,66.60
2023-03-17T02:55:15.661Z,67.10
2023-03-17T02:57:43.685Z,68.00
2023-03-17T03:00:12.149Z,66.80
2023-03-17T03:02:41.548Z,66.90
2023-03-17T03:05:09.780Z,67.30
2023-03-17T03:07:37.806Z,66.80
2023-03-17T03:10:09.112Z,66.60
2023-03-17T03:12:46.502Z,66.80
2023-03-17T03:15:15.051Z,66.70
2023-03-17T03:17:42.766Z,66.40
2023-03-17T03:20:17.439Z,66.90
2023-03-17T03:22:45.431Z,66.50
2023-03-17T03:25:13.237Z,66.80
2023-03-17T03:27:41.200Z,66.80
2023-03-17T03:30:10.924Z,66.90
2023-03-17T03:32:38.923Z,66.80
2023-03-17T03:35:08.671Z,67.10
2023-03-17T03:37:39.650Z,66.40
2023-03-17T03:40:10.467Z,66.40
2023-03-17T03:45:26.354Z,66.20
2023-03-17T03:47:54.326Z,65.80
2023-03-17T03:50:22.430Z,65.90
2023-03-17T03:52:50.253Z,66.20
2023-03-17T03:55:18.570Z,66.20
2023-03-17T03:57:46.292Z,66.50
2023-03-17T04:00:15.505Z,67.20
2023-03-17T04:02:44.963Z,66.20
2023-03-17T04:05:15.782Z,66.30
2023-03-17T04:07:43.497Z,66.30
2023-03-17T04:10:16.103Z,66.40
2023-03-17T04:12:44.018Z,66.20
2023-03-17T04:15:15.820Z,66.10
2023-03-17T04:17:43.587Z,66.30
2023-03-17T04:20:25.039Z,66.30
2023-03-17T04:22:53.118Z,66.10
2023-03-17T04:25:20.847Z,66.30
2023-03-17T04:27:49.315Z,65.80
2023-03-17T04:30:17.371Z,66.50
2023-03-17T04:32:46.724Z,66.60
2023-03-17T04:35:17.513Z,66.50
2023-03-17T04:37:46.283Z,66.80
2023-03-17T04:40:33.736Z,67.20
2023-03-17T04:43:03.557Z,67.00
2023-03-17T04:45:31.634Z,67.20
2023-03-17T04:47:59.540Z,66.70
2023-03-17T04:50:27.635Z,66.20
2023-03-17T04:52:56.510Z,66.20
2023-03-17T04:55:44.540Z,65.90
2023-03-17T04:58:21.093Z,66.00
2023-03-17T05:00:42.590Z,66.00
2023-03-17T05:03:24.064Z,66.30
2023-03-17T05:05:41.418Z,66.90
2023-03-17T05:08:08.914Z,66.50
2023-03-17T05:10:51.582Z,66.90
2023-03-17T05:13:32.951Z,67.20
2023-03-17T05:16:01.945Z,67.20
2023-03-17T05:18:29.944Z,67.00
2023-03-17T05:20:57.657Z,67.20
2023-03-17T05:26:11.218Z,66.80
2023-03-17T05:28:38.919Z,67.00
2023-03-17T05:31:08.266Z,67.00
2023-03-17T05:33:37.563Z,66.90
2023-03-17T05:36:06.216Z,67.20
2023-03-17T05:38:34.015Z,67.20
2023-03-17T05:41:03.082Z,66.90
2023-03-17T05:43:30.884Z,67.10
2023-03-17T05:45:58.129Z,67.30
2023-03-17T05:48:26.901Z,67.30
2023-03-17T05:50:54.759Z,67.30
2023-03-17T05:53:22.646Z,67.40
2023-03-17T05:55:50.260Z,67.20
2023-03-17T05:58:18.796Z,68.10
2023-03-17T06:00:47.636Z,67.60
2023-03-17T06:03:17.645Z,67.40
2023-03-17T06:05:45.081Z,67.20
2023-03-17T06:08:13.532Z,67.10
2023-03-17T06:10:44.406Z,67.70
2023-03-17T06:13:12.252Z,68.70
2023-03-17T06:15:40.037Z,69.70
2023-03-17T06:18:29.986Z,67.60
2023-03-17T06:20:58.451Z,67.20
2023-03-17T06:23:26.273Z,67.30
2023-03-17T06:25:54.175Z,66.90
2023-03-17T06:28:22.505Z,67.10
2023-03-17T06:30:50.287Z,67.50
2023-03-17T06:33:18.623Z,67.50
2023-03-17T06:35:48.292Z,67.80
2023-03-17T06:38:21.126Z,67.90
2023-03-17T06:40:48.970Z,68.30
2023-03-17T06:43:17.870Z,68.40
2023-03-17T06:45:46.848Z,68.40
2023-03-17T06:48:14.428Z,67.80
2023-03-17T06:50:42.271Z,67.70
2023-03-17T06:53:10.218Z,67.50
2023-03-17T06:55:37.777Z,67.60
2023-03-17T06:58:05.626Z,67.80
2023-03-17T07:00:33.133Z,68.20
2023-03-17T07:03:04.654Z,68.00
2023-03-17T07:05:33.809Z,67.90
2023-03-17T07:08:04.822Z,68.30
2023-03-17T07:10:33.494Z,67.00
2023-03-17T07:13:01.183Z,67.00
2023-03-17T07:15:31.115Z,66.30
2023-03-17T07:17:58.806Z,65.50
2023-03-17T07:20:26.526Z,64.40
2023-03-17T07:22:57.763Z,63.80
2023-03-17T07:25:39.166Z,63.10
2023-03-17T07:28:06.460Z,62.00
2023-03-17T07:30:34.178Z,61.90
2023-03-17T07:33:02.196Z,61.90
2023-03-17T07:35:31.615Z,62.00
2023-03-17T07:38:00.205Z,61.70
2023-03-17T07:40:28.102Z,60.80
2023-03-17T07:42:55.639Z,60.10
2023-03-17T07:45:25.990Z,59.60
2023-03-17T07:47:54.370Z,59.30
2023-03-17T07:50:22.397Z,59.00
2023-03-17T07:52:50.770Z,58.80
2023-03-17T07:55:20.302Z,58.20
2023-03-17T07:57:48.105Z,58.80
2023-03-17T08:00:17.347Z,58.60
2023-03-17T08:02:45.039Z,58.50
2023-03-17T08:05:14.977Z,58.70
2023-03-17T08:07:42.837Z,58.80
2023-03-17T08:10:13.464Z,58.30
2023-03-17T08:12:42.905Z,56.90
2023-03-17T08:15:11.742Z,56.10
2023-03-17T08:17:40.119Z,56.80
2023-03-17T08:20:12.280Z,57.60
2023-03-17T08:22:43.865Z,57.50
2023-03-17T08:25:12.906Z,56.00
2023-03-17T08:27:42.030Z,55.90
2023-03-17T08:30:12.940Z,54.50
2023-03-17T08:32:41.800Z,54.20
2023-03-17T08:38:28.723Z,53.80
2023-03-17T08:41:02.253Z,53.70
2023-03-17T08:43:30.667Z,52.90
2023-03-17T08:46:20.484Z,52.80
2023-03-17T08:48:58.908Z,52.70
2023-03-17T08:51:29.894Z,52.40
2023-03-17T08:53:59.040Z,52.00
2023-03-17T08:56:27.562Z,51.90
2023-03-17T08:58:55.598Z,52.50
2023-03-17T09:01:24.786Z,52.70
2023-03-17T09:03:55.106Z,52.30
2023-03-17T09:06:24.990Z,51.40
2023-03-17T09:08:54.663Z,50.70
2023-03-17T09:11:25.622Z,51.10
2023-03-17T09:13:54.316Z,51.30
2023-03-17T09:16:24.446Z,51.30
2023-03-17T09:18:54.999Z,50.90
2023-03-17T09:21:22.624Z,51.10
2023-03-17T09:23:50.563Z,51.00
2023-03-17T09:26:18.252Z,50.60
2023-03-17T09:28:46.703Z,50.60
2023-03-17T09:31:13.903Z,50.10
2023-03-17T09:33:42.605Z,50.70
2023-03-17T09:36:11.170Z,51.20
2023-03-17T09:38:39.038Z,50.30
2023-03-17T09:41:26.297Z,50.10
2023-03-17T09:44:13.076Z,49.80
2023-03-17T09:47:17.576Z,50.30
2023-03-17T09:49:53.333Z,49.60
2023-03-17T09:52:27.895Z,49.80
2023-03-17T09:54:56.239Z,49.20
2023-03-17T09:57:38.926Z,49.90
2023-03-17T10:00:19.432Z,49.60
2023-03-17T10:02:47.916Z,48.60
2023-03-17T10:05:28.887Z,48.50
2023-03-17T10:08:29.492Z,48.20
2023-03-17T10:10:49.492Z,48.30
2023-03-17T10:13:41.070Z,48.50
2023-03-17T10:16:17.939Z,48.60
2023-03-17T10:18:58.477Z,49.10
2023-03-17T10:21:50.579Z,46.70
2023-03-17T10:24:19.720Z,47.20
2023-03-17T10:26:50.782Z,47.30
2023-03-17T10:29:22.889Z,47.50
2023-03-17T10:31:52.684Z,47.40
2023-03-17T10:34:24.358Z,46.80
2023-03-17T10:36:55.490Z,48.20
2023-03-17T10:39:24.978Z,49.10
2023-03-17T10:42:02.390Z,49.70
2023-03-17T10:44:42.899Z,49.70
2023-03-17T10:47:24.339Z,49.70
2023-03-17T10:49:52.859Z,49.50
2023-03-17T10:52:30.537Z,50.10
2023-03-17T10:55:07.701Z,51.30
2023-03-17T10:57:39.165Z,50.20
2023-03-17T11:00:16.904Z,50.10
2023-03-17T11:02:48.733Z,49.90
2023-03-17T11:05:24.050Z,50.00
2023-03-17T11:08:12.887Z,49.80
2023-03-17T11:10:42.006Z,48.70
2023-03-17T11:13:10.794Z,49.10
2023-03-17T11:15:44.366Z,50.70
2023-03-17T11:18:18.614Z,50.80
2023-03-17T11:20:56.239Z,49.20
2023-03-17T11:23:31.037Z,50.30
2023-03-17T11:26:02.710Z,51.40
2023-03-17T11:28:34.376Z,50.50
2023-03-17T11:31:22.780Z,49.00
2023-03-17T11:33:55.334Z,48.30
2023-03-17T11:36:41.964Z,49.70
2023-03-17T11:39:19.419Z,51.40
2023-03-17T11:42:15.681Z,51.20
2023-03-17T11:45:11.579Z,50.10
2023-03-17T11:47:49.542Z,49.70
2023-03-17T11:50:32.908Z,57.70
2023-03-17T11:53:04.959Z,59.70
2023-03-17T11:55:47.370Z,61.80
2023-03-17T11:58:21.798Z,56.60
2023-03-17T12:00:58.719Z,52.50
2023-03-17T12:03:33.372Z,50.40
2023-03-17T12:06:08.091Z,50.40
2023-03-17T12:08:45.874Z,50.50
2023-03-17T12:11:17.286Z,50.30
2023-03-17T12:14:06.372Z,51.00
2023-03-17T12:19:42.753Z,51.60
2023-03-17T12:22:23.775Z,49.90
2023-03-17T12:25:16.681Z,50.50
2023-03-17T12:28:03.268Z,49.90
2023-03-17T12:30:34.835Z,50.10
2023-03-17T12:33:09.460Z,49.20
2023-03-17T12:35:39.189Z,49.70
2023-03-17T12:38:16.279Z,48.90
2023-03-17T12:40:50.658Z,48.20
2023-03-17T12:43:34.154Z,48.20
2023-03-17T12:46:40.644Z,47.80
2023-03-17T12:49:37.345Z,47.40
2023-03-17T12:52:23.946Z,48.50
2023-03-17T12:54:54.016Z,46.80
2023-03-17T12:57:25.251Z,47.80
2023-03-17T13:00:05.961Z,48.80
2023-03-17T13:02:40.842Z,48.50
2023-03-17T13:05:15.549Z,46.70
2023-03-17T13:07:52.913Z,45.80
2023-03-17T13:10:42.857Z,45.90
2023-03-17T13:13:26.933Z,45.20
2023-03-17T13:15:58.763Z,44.40
2023-03-17T13:18:39.566Z,46.30
2023-03-17T13:21:11.448Z,45.80
2023-03-17T13:24:01.582Z,44.10
2023-03-17T13:26:53.688Z,44.00
2023-03-17T13:29:33.433Z,44.70
2023-03-17T13:32:29.188Z,43.80
2023-03-17T13:35:03.532Z,42.50
2023-03-17T13:37:37.547Z,40.80
2023-03-17T13:40:18.164Z,40.00
2023-03-17T13:42:59.442Z,41.30
2023-03-17T13:45:34.408Z,40.70
2023-03-17T13:48:32.522Z,41.80
2023-03-17T13:51:03.946Z,40.70
2023-03-17T13:53:35.964Z,39.70
2023-03-17T13:56:19.966Z,38.90
2023-03-17T13:59:09.404Z,38.30
2023-03-17T14:01:41.092Z,37.90
2023-03-17T14:04:15.782Z,39.10
2023-03-17T14:06:47.623Z,39.30
2023-03-17T14:09:38.953Z,39.30
2023-03-17T14:12:29.279Z,39.00
2023-03-17T14:15:08.250Z,38.00
2023-03-17T14:17:48.674Z,37.40
2023-03-17T14:20:19.828Z,37.30
2023-03-17T14:22:50.894Z,36.90
2023-03-17T14:25:21.789Z,36.10
2023-03-17T14:27:55.318Z,37.20
2023-03-17T14:30:26.804Z,36.10
2023-03-17T14:33:07.489Z,35.50
2023-03-17T14:35:42.306Z,33.40
2023-03-17T14:38:22.321Z,34.90
2023-03-17T14:40:52.006Z,34.70
2023-03-17T14:43:19.881Z,33.80
2023-03-17T14:45:59.227Z,33.70
2023-03-17T14:48:30.061Z,33.90
2023-03-17T14:51:06.849Z,33.20
2023-03-17T14:53:43.734Z,33.20
2023-03-17T14:56:11.669Z,34.10
2023-03-17T14:58:48.576Z,34.30
2023-03-17T15:01:19.398Z,33.20
2023-03-17T15:03:59.240Z,32.20
2023-03-17T15:06:33.134Z,31.40
2023-03-17T15:09:05.119Z,31.20
2023-03-17T15:11:42.413Z,30.70
2023-03-17T15:14:19.301Z,30.60
2023-03-17T15:16:51.634Z,30.60
2023-03-17T15:19:23.227Z,29.40
2023-03-17T15:21:51.663Z,29.30
2023-03-17T15:24:40.721Z,29.70
2023-03-17T15:27:17.090Z,28.60
2023-03-17T15:29:45.812Z,28.80
2023-03-17T15:32:16.820Z,29.80
2023-03-17T15:34:44.567Z,29.70
2023-03-17T15:37:25.986Z,29.60
2023-03-17T15:39:55.743Z,30.00
2023-03-17T15:42:28.619Z,30.30
2023-03-17T15:44:56.455Z,30.10
2023-03-17T15:47:27.088Z,29.70
2023-03-17T15:49:58.328Z,29.80
2023-03-17T15:52:28.217Z,29.80
2023-03-17T15:55:00.152Z,30.00
2023-03-17T15:57:27.542Z,30.70
2023-03-17T15:59:55.236Z,30.90
2023-03-17T16:02:35.333Z,31.30
2023-03-17T16:05:09.912Z,31.80
2023-03-17T16:07:38.840Z,32.30
2023-03-17T16:10:13.646Z,32.20
2023-03-17T16:12:43.960Z,33.20
2023-03-17T16:15:22.801Z,33.40
2023-03-17T16:17:46.780Z,33.80
2023-03-17T16:20:23.900Z,34.60
2023-03-17T16:22:53.661Z,35.80
2023-03-17T16:25:30.337Z,35.90
2023-03-17T16:28:00.715Z,36.60
2023-03-17T16:30:31.693Z,37.80
2023-03-17T16:33:06.321Z,38.40
2023-03-17T16:35:33.856Z,38.30
2023-03-17T16:38:01.395Z,38.90
2023-03-17T16:40:36.296Z,39.10
2023-03-17T16:43:25.282Z,39.60
2023-03-17T16:45:50.803Z,38.90
2023-03-17T16:48:18.500Z,38.80
2023-03-17T16:50:46.433Z,39.00
2023-03-17T16:53:14.184Z,39.20
2023-03-17T16:55:42.745Z,38.60
2023-03-17T16:58:20.356Z,38.60
2023-03-17T17:00:49.682Z,39.10
2023-03-17T17:03:25.626Z,39.70
2023-03-17T17:05:53.271Z,40.60
2023-03-17T17:08:23.454Z,41.00
2023-03-17T17:10:51.289Z,41.70
2023-03-17T17:13:19.330Z,42.40
2023-03-17T17:15:47.074Z,43.70
2023-03-17T17:18:18.140Z,44.20
2023-03-17T17:20:46.134Z,45.50
2023-03-17T17:23:17.442Z,46.30
2023-03-17T17:25:47.028Z,46.40
2023-03-17T17:28:18.379Z,47.20
2023-03-17T17:30:50.000Z,47.70
2023-03-17T17:33:18.380Z,48.50
2023-03-17T17:35:48.041Z,49.00
2023-03-17T17:38:27.293Z,49.70
2023-03-17T17:40:59.491Z,50.00
2023-03-17T17:43:26.896Z,51.10
2023-03-17T17:45:55.539Z,50.80
2023-03-17T17:48:25.331Z,51.80
2023-03-17T17:50:54.660Z,52.30
2023-03-17T17:53:22.545Z,52.00
2023-03-17T17:55:50.280Z,52.40
2023-03-17T17:58:23.974Z,52.60
2023-03-17T18:00:54.090Z,52.70
2023-03-17T18:03:24.629Z,53.30
2023-03-17T18:05:59.339Z,53.30
2023-03-17T18:08:27.661Z,53.30
2023-03-17T18:10:57.353Z,53.10
2023-03-17T18:13:25.453Z,53.30
2023-03-17T18:15:53.411Z,54.20
2023-03-17T18:18:21.181Z,54.40
2023-03-17T18:20:48.552Z,54.20
2023-03-17T18:23:16.952Z,54.00
2023-03-17T18:25:44.533Z,54.20
2023-03-17T18:28:13.131Z,54.90
2023-03-17T18:30:40.780Z,55.30
2023-03-17T18:33:26.354Z,54.80
2023-03-17T18:36:00.829Z,54.60
2023-03-17T18:38:28.044Z,54.80
2023-03-17T18:40:55.837Z,55.00
2023-03-17T18:43:23.213Z,55.30
2023-03-17T18:45:51.768Z,55.60
2023-03-17T18:48:23.735Z,55.10
2023-03-17T18:50:51.902Z,55.10
2023-03-17T18:53:19.844Z,55.40
2023-03-17T18:55:47.954Z,55.40
2023-03-17T18:58:15.789Z,55.70
2023-03-17T19:00:43.276Z,55.90
2023-03-17T19:03:11.118Z,56.00
2023-03-17T19:05:40.906Z,56.00
2023-03-17T19:08:08.443Z,56.20
2023-03-17T19:10:36.487Z,56.20
2023-03-17T19:13:04.713Z,56.30
2023-03-17T19:15:33.241Z,56.40
2023-03-17T19:18:01.368Z,56.30
2023-03-17T19:20:29.575Z,56.40
2023-03-17T19:22:58.557Z,56.70
2023-03-17T19:25:26.547Z,56.90
2023-03-17T19:27:53.780Z,56.60
2023-03-17T19:30:21.996Z,56.40
2023-03-17T19:32:49.610Z,56.40
2023-03-17T19:35:17.857Z,56.50
2023-03-17T19:37:46.555Z,56.90
2023-03-17T19:40:14.870Z,56.80
2023-03-17T19:42:42.810Z,57.00
2023-03-17T19:45:12.111Z,56.90
2023-03-17T19:47:39.687Z,56.80
2023-03-17T19:50:08.820Z,56.80
2023-03-17T19:52:36.776Z,56.90
2023-03-17T19:55:07.719Z,57.00
2023-03-17T19:57:34.288Z,57.30
2023-03-17T20:00:11.566Z,57.30
2023-03-17T20:02:39.779Z,57.70
2023-03-17T20:05:08.084Z,57.90
2023-03-17T20:07:36.788Z,57.70
2023-03-17T20:10:06.757Z,57.90
2023-03-17T20:12:39.938Z,58.10
2023-03-17T20:15:09.206Z,58.30
2023-03-17T20:17:37.020Z,58.70
2023-03-17T20:20:05.631Z,58.70
2023-03-17T20:22:33.693Z,58.90
2023-03-17T20:25:02.131Z,58.40
2023-03-17T20:27:30.219Z,57.90
2023-03-17T20:29:59.447Z,58.30
2023-03-17T20:32:27.772Z,58.50
2023-03-17T20:34:56.216Z,59.10
2023-03-17T20:37:25.057Z,58.70
2023-03-17T20:39:54.918Z,59.70
2023-03-17T20:42:22.941Z,59.20
2023-03-17T20:44:53.906Z,59.70
2023-03-17T20:47:21.676Z,60.00
2023-03-17T20:49:50.759Z,59.60
2023-03-17T20:52:18.776Z,59.90
2023-03-17T20:54:47.091Z,60.00
2023-03-17T20:57:15.008Z,60.30
2023-03-17T20:59:44.039Z,60.20
2023-03-17T21:02:17.786Z,60.50
2023-03-17T21:04:49.506Z,60.70
2023-03-17T21:07:19.566Z,60.10
2023-03-17T21:09:48.238Z,59.80
2023-03-17T21:12:19.162Z,60.00
2023-03-17T21:14:48.834Z,60.30
2023-03-17T21:17:21.087Z,62.60
2023-03-17T21:19:49.123Z,61.00
2023-03-17T21:22:18.045Z,61.10
2023-03-17T21:24:45.760Z,61.10
2023-03-17T21:27:13.783Z,61.10
2023-03-17T21:30:01.257Z,61.20
2023-03-17T21:32:31.037Z,61.30
2023-03-17T21:35:18.614Z,61.80
2023-03-17T21:37:45.924Z,61.90
2023-03-17T21:40:16.141Z,62.40
2023-03-17T21:42:47.314Z,62.20
2023-03-17T21:45:15.173Z,62.50
2023-03-17T21:47:46.872Z,62.90
2023-03-17T21:50:17.172Z,63.20
2023-03-17T21:52:45.923Z,66.00
2023-03-17T21:55:14.033Z,64.40
2023-03-17T21:57:42.300Z,64.30
2023-03-17T22:00:12.184Z,64.70
2023-03-17T22:02:42.973Z,64.90
2023-03-17T22:05:23.865Z,65.20
2023-03-17T22:07:53.771Z,65.10
2023-03-17T22:10:21.814Z,65.50
2023-03-17T22:12:54.389Z,66.00
2023-03-17T22:15:22.975Z,66.30
2023-03-17T22:17:50.819Z,66.20
2023-03-17T22:20:19.224Z,66.60
2023-03-17T22:22:47.507Z,66.80
2023-03-17T22:25:15.882Z,67.00
2023-03-17T22:27:43.901Z,67.20
2023-03-17T22:30:12.625Z,67.40
2023-03-17T22:32:40.271Z,67.80
2023-03-17T22:35:08.413Z,67.70
2023-03-17T22:37:36.881Z,68.00
2023-03-17T22:40:06.627Z,68.60
2023-03-17T22:42:34.328Z,68.70
2023-03-17T22:45:02.728Z,69.10
2023-03-17T22:47:30.816Z,69.60
2023-03-17T22:49:58.536Z,69.70
2023-03-17T22:52:26.490Z,69.70
2023-03-17T22:54:54.344Z,69.30
2023-03-17T22:57:22.039Z,69.80
2023-03-17T22:59:49.929Z,70.70
2023-03-17T23:02:18.614Z,70.80
2023-03-17T23:04:46.787Z,70.20
2023-03-17T23:07:14.812Z,70.00
2023-03-17T23:09:43.045Z,70.40
2023-03-17T23:12:11.691Z,70.70
2023-03-17T23:14:41.235Z,70.50
2023-03-17T23:17:09.402Z,70.40
2023-03-17T23:19:37.468Z,70.80
2023-03-17T23:22:05.323Z,71.30
2023-03-17T23:24:33.527Z,71.80
2023-03-17T23:27:01.260Z,72.00
2023-03-17T23:29:28.786Z,72.30
2023-03-17T23:31:56.674Z,72.40
2023-03-17T23:34:24.252Z,72.60
2023-03-17T23:36:52.695Z,72.90
2023-03-17T23:39:20.628Z,72.00
2023-03-17T23:41:48.455Z,71.90
2023-03-17T23:44:18.156Z,72.60
2023-03-17T23:46:45.409Z,72.60
2023-03-17T23:49:13.443Z,72.90
2023-03-17T23:51:41.038Z,73.00
2023-03-17T23:54:09.780Z,72.80
2023-03-17T23:56:37.597Z,72.80
2023-03-17T23:59:07.364Z,72.80
